createdAt,value
2023-03-06T00:02:17.594Z,12.02
2023-03-06T00:04:44.047Z,12.50
2023-03-06T00:07:10.565Z,13.13
2023-03-06T00:09:37.000Z,13.25
2023-03-06T00:12:03.603Z,14.70
2023-03-06T00:14:30.169Z,13.82
2023-03-06T00:16:56.857Z,16.20
2023-03-06T00:19:23.571Z,17.35
2023-03-06T00:21:50.226Z,18.80
2023-03-06T00:24:16.865Z,19.65
2023-03-06T00:26:43.347Z,21.10
2023-03-06T00:29:09.824Z,21.83
2023-03-06T00:31:36.340Z,21.83
2023-03-06T00:34:03.303Z,22.27
2023-03-06T00:36:29.767Z,23.33
2023-03-06T00:38:56.206Z,24.30
2023-03-06T00:41:22.726Z,24.17
2023-03-06T00:43:49.162Z,26.55
2023-03-06T00:46:15.686Z,23.58
2023-03-06T00:48:42.231Z,24.38
2023-03-06T00:51:08.747Z,25.00
2023-03-06T00:53:35.229Z,25.08
2023-03-06T00:56:01.739Z,24.58
2023-03-06T00:58:28.173Z,26.30
2023-03-06T01:00:54.674Z,26.17
2023-03-06T01:03:21.179Z,27.80
2023-03-06T01:05:47.684Z,26.98
2023-03-06T01:08:14.186Z,27.20
2023-03-06T01:10:40.709Z,27.70
2023-03-06T01:13:07.189Z,28.92
2023-03-06T01:15:34.079Z,30.92
2023-03-06T01:18:00.572Z,30.17
2023-03-06T01:20:27.360Z,30.05
2023-03-06T01:22:55.458Z,30.58
2023-03-06T01:25:22.264Z,30.10
2023-03-06T01:27:48.717Z,30.52
2023-03-06T01:30:15.229Z,31.70
2023-03-06T01:32:41.697Z,32.17
2023-03-06T01:35:08.325Z,31.63
2023-03-06T01:37:36.132Z,32.40
2023-03-06T01:40:02.668Z,31.20
2023-03-06T01:42:30.403Z,33.30
2023-03-06T01:44:59.842Z,32.08
2023-03-06T01:47:26.384Z,31.90
2023-03-06T01:49:53.369Z,33.47
2023-03-06T01:52:22.019Z,32.70
2023-03-06T01:54:50.861Z,33.00
2023-03-06T01:57:17.335Z,32.88
2023-03-06T01:59:44.194Z,32.10
2023-03-06T02:02:11.228Z,32.78
2023-03-06T02:04:39.644Z,31.95
2023-03-06T02:07:06.243Z,31.05
2023-03-06T02:09:34.222Z,32.00
2023-03-06T02:12:07.288Z,31.50
2023-03-06T02:14:33.843Z,31.77
2023-03-06T02:17:00.493Z,31.80
2023-03-06T02:19:45.741Z,30.77
2023-03-06T02:22:12.242Z,30.90
2023-03-06T02:24:51.818Z,28.88
2023-03-06T02:27:19.021Z,28.98
2023-03-06T02:29:45.818Z,30.15
2023-03-06T02:32:12.391Z,28.30
2023-03-06T02:34:38.847Z,29.23
2023-03-06T02:37:08.956Z,29.55
2023-03-06T02:39:38.018Z,29.55
2023-03-06T02:42:04.551Z,29.30
2023-03-06T02:44:31.524Z,28.08
2023-03-06T02:46:57.948Z,27.48
2023-03-06T02:49:26.397Z,28.23
2023-03-06T02:51:53.028Z,27.70
2023-03-06T02:54:19.576Z,27.42
2023-03-06T02:56:45.995Z,27.40
2023-03-06T02:59:12.566Z,26.13
2023-03-06T03:01:39.099Z,26.42
2023-03-06T03:04:05.836Z,27.15
2023-03-06T03:06:32.278Z,26.23
2023-03-06T03:08:58.733Z,27.33
2023-03-06T03:11:25.227Z,25.60
2023-03-06T03:13:51.719Z,27.25
2023-03-06T03:16:18.308Z,25.33
2023-03-06T03:18:45.022Z,24.77
2023-03-06T03:21:12.722Z,25.23
2023-03-06T03:23:39.463Z,23.63
2023-03-06T03:26:10.665Z,26.98
2023-03-06T03:28:37.611Z,25.95
2023-03-06T03:31:04.899Z,26.42
2023-03-06T03:33:31.568Z,25.45
2023-03-06T03:36:02.146Z,25.80
2023-03-06T03:38:28.678Z,27.35
2023-03-06T03:40:55.125Z,26.45
2023-03-06T03:43:21.572Z,26.65
2023-03-06T03:45:48.053Z,27.13
2023-03-06T03:48:14.469Z,26.48
2023-03-06T03:50:40.930Z,26.67
2023-03-06T03:53:07.371Z,27.35
2023-03-06T03:55:33.836Z,27.85
2023-03-06T03:58:03.083Z,28.45
2023-03-06T04:00:29.527Z,28.75
2023-03-06T04:02:56.051Z,28.65
2023-03-06T04:05:22.513Z,29.38
2023-03-06T04:07:48.969Z,30.10
2023-03-06T04:10:15.462Z,29.13
2023-03-06T04:12:41.868Z,30.58
2023-03-06T04:15:08.505Z,29.77
2023-03-06T04:17:35.104Z,30.65
2023-03-06T04:20:02.198Z,30.05
2023-03-06T04:22:28.747Z,30.67
2023-03-06T04:24:55.173Z,30.05
2023-03-06T04:27:21.649Z,29.98
2023-03-06T04:29:48.136Z,30.55
2023-03-06T04:32:14.769Z,31.92
2023-03-06T04:34:41.406Z,33.60
2023-03-06T04:37:11.461Z,31.00
2023-03-06T04:39:37.950Z,32.90
2023-03-06T04:42:04.500Z,30.27
2023-03-06T04:44:31.031Z,31.17
2023-03-06T04:46:57.501Z,32.67
2023-03-06T04:49:23.948Z,32.78
2023-03-06T04:51:50.454Z,32.75
2023-03-06T04:54:18.935Z,32.33
2023-03-06T04:56:45.564Z,31.85
2023-03-06T04:59:12.016Z,33.65
2023-03-06T05:01:38.464Z,31.17
2023-03-06T05:04:05.066Z,32.10
2023-03-06T05:06:31.826Z,33.97
2023-03-06T05:08:58.406Z,31.65
2023-03-06T05:11:25.043Z,32.47
2023-03-06T05:13:51.690Z,31.80
2023-03-06T05:16:18.251Z,32.58
2023-03-06T05:18:44.761Z,32.72
2023-03-06T05:21:11.229Z,32.95
2023-03-06T05:23:38.634Z,32.83
2023-03-06T05:26:07.013Z,33.33
2023-03-06T05:28:33.429Z,33.22
2023-03-06T05:31:01.653Z,33.13
2023-03-06T05:33:31.058Z,32.17
2023-03-06T05:35:57.677Z,34.15
2023-03-06T05:38:24.249Z,33.42
2023-03-06T05:40:50.736Z,34.75
2023-03-06T05:43:17.252Z,34.20
2023-03-06T05:45:43.914Z,34.65
2023-03-06T05:48:11.843Z,35.22
2023-03-06T05:50:38.386Z,35.53
2023-03-06T05:53:04.883Z,34.80
2023-03-06T05:55:31.446Z,34.35
2023-03-06T05:57:57.939Z,35.80
2023-03-06T06:00:24.682Z,35.58
2023-03-06T06:02:51.183Z,35.55
2023-03-06T06:05:17.834Z,35.08
2023-03-06T06:07:44.328Z,37.47
2023-03-06T06:10:11.277Z,37.08
2023-03-06T06:12:37.762Z,36.15
2023-03-06T06:15:04.506Z,37.13
2023-03-06T06:17:31.385Z,37.97
2023-03-06T06:19:57.939Z,38.35
2023-03-06T06:22:24.644Z,37.28
2023-03-06T06:24:51.139Z,35.78
2023-03-06T06:27:17.643Z,38.03
2023-03-06T06:29:44.130Z,36.65
2023-03-06T06:32:10.614Z,38.22
2023-03-06T06:34:37.109Z,38.58
2023-03-06T06:37:03.659Z,40.47
2023-03-06T06:39:30.496Z,36.63
2023-03-06T06:42:09.989Z,37.88
2023-03-06T06:44:43.670Z,36.13
2023-03-06T06:47:26.259Z,37.58
2023-03-06T06:49:53.540Z,37.08
2023-03-06T06:52:20.149Z,37.45
2023-03-06T06:54:46.611Z,37.58
2023-03-06T06:57:13.292Z,37.75
2023-03-06T06:59:39.729Z,37.92
2023-03-06T07:02:06.442Z,39.00
2023-03-06T07:04:33.058Z,38.20
2023-03-06T07:06:59.852Z,39.33
2023-03-06T07:09:26.618Z,40.05
2023-03-06T07:11:53.066Z,39.83
2023-03-06T07:14:19.636Z,38.60
2023-03-06T07:16:46.089Z,39.10
2023-03-06T07:19:12.736Z,40.35
2023-03-06T07:21:39.286Z,40.00
2023-03-06T07:24:05.857Z,40.70
2023-03-06T07:26:35.069Z,41.00
2023-03-06T07:29:02.061Z,39.85
2023-03-06T07:31:28.836Z,40.40
2023-03-06T07:33:55.583Z,40.28
2023-03-06T07:36:23.148Z,41.58
2023-03-06T07:38:49.643Z,39.03
2023-03-06T07:41:17.260Z,40.50
2023-03-06T07:43:44.494Z,41.28
2023-03-06T07:46:12.500Z,41.60
2023-03-06T07:48:39.207Z,41.40
2023-03-06T07:51:06.764Z,41.40
2023-03-06T07:53:34.163Z,42.13
2023-03-06T07:56:00.914Z,42.67
2023-03-06T07:58:27.528Z,41.08
2023-03-06T08:00:54.053Z,40.78
2023-03-06T08:03:20.462Z,41.33
2023-03-06T08:05:47.014Z,42.92
2023-03-06T08:08:13.509Z,42.83
2023-03-06T08:10:40.046Z,42.15
2023-03-06T08:13:06.682Z,40.20
2023-03-06T08:15:33.188Z,41.60
2023-03-06T08:17:59.797Z,41.42
2023-03-06T08:20:26.240Z,42.30
2023-03-06T08:22:52.735Z,44.17
2023-03-06T08:25:19.245Z,42.10
2023-03-06T08:27:47.421Z,43.50
2023-03-06T08:30:14.475Z,42.55
2023-03-06T08:32:41.037Z,42.17
2023-03-06T08:35:08.015Z,42.28
2023-03-06T08:37:34.524Z,41.80
2023-03-06T08:40:04.504Z,45.17
2023-03-06T08:42:31.309Z,41.45
2023-03-06T08:44:57.804Z,41.55
2023-03-06T08:47:24.207Z,43.88
2023-03-06T08:49:50.749Z,41.83
2023-03-06T08:52:17.211Z,44.78
2023-03-06T08:54:43.832Z,45.13
2023-03-06T08:57:10.359Z,43.20
2023-03-06T08:59:37.051Z,42.03
2023-03-06T09:02:05.374Z,40.03
2023-03-06T09:04:32.061Z,42.33
2023-03-06T09:07:00.257Z,43.38
2023-03-06T09:09:26.706Z,42.15
2023-03-06T09:11:53.780Z,42.65
2023-03-06T09:14:20.443Z,42.72
2023-03-06T09:16:46.975Z,43.00
2023-03-06T09:19:13.556Z,41.70
2023-03-06T09:21:40.055Z,40.05
2023-03-06T09:24:06.570Z,42.30
2023-03-06T09:26:45.119Z,41.95
2023-03-06T09:29:12.657Z,42.05
2023-03-06T09:31:39.201Z,42.53
2023-03-06T09:34:05.657Z,42.55
2023-03-06T09:36:40.146Z,40.90
2023-03-06T09:39:12.474Z,42.75
2023-03-06T09:41:42.091Z,41.05
2023-03-06T09:44:20.268Z,43.85
2023-03-06T09:47:06.973Z,41.25
2023-03-06T09:49:51.860Z,40.88
2023-03-06T09:52:28.258Z,42.15
2023-03-06T09:54:56.870Z,40.75
2023-03-06T09:57:26.553Z,40.25
2023-03-06T09:59:54.750Z,39.30
2023-03-06T10:02:41.630Z,39.17
2023-03-06T10:05:15.497Z,38.63
2023-03-06T10:07:58.462Z,38.13
2023-03-06T10:10:27.232Z,40.03
2023-03-06T10:12:58.792Z,38.65
2023-03-06T10:15:26.707Z,36.85
2023-03-06T10:17:53.429Z,38.90
2023-03-06T10:20:22.572Z,36.67
2023-03-06T10:23:00.622Z,37.22
2023-03-06T10:25:32.906Z,35.47
2023-03-06T10:28:02.396Z,36.33
2023-03-06T10:30:29.141Z,36.35
2023-03-06T10:32:58.373Z,35.38
2023-03-06T10:35:30.456Z,35.45
2023-03-06T10:38:02.203Z,35.10
2023-03-06T10:40:36.080Z,34.22
2023-03-06T10:43:11.382Z,34.47
2023-03-06T10:45:49.834Z,35.08
2023-03-06T10:48:22.639Z,35.70
2023-03-06T10:50:49.489Z,36.10
2023-03-06T10:53:43.716Z,34.00
2023-03-06T10:56:10.477Z,34.58
2023-03-06T10:58:37.218Z,34.55
2023-03-06T11:01:17.307Z,34.30
2023-03-06T11:03:46.354Z,33.97
2023-03-06T11:06:18.599Z,34.10
2023-03-06T11:08:45.445Z,33.20
2023-03-06T11:11:22.404Z,32.45
2023-03-06T11:13:58.553Z,32.83
2023-03-06T11:16:30.730Z,32.15
2023-03-06T11:19:07.066Z,30.58
2023-03-06T11:21:35.185Z,33.40
2023-03-06T11:24:07.783Z,32.30
2023-03-06T11:26:50.976Z,32.65
2023-03-06T11:29:29.815Z,31.65
2023-03-06T11:32:01.259Z,30.75
2023-03-06T11:34:48.627Z,30.35
2023-03-06T11:37:22.293Z,27.05
2023-03-06T11:40:12.108Z,28.63
2023-03-06T11:43:08.422Z,23.10
2023-03-06T11:46:00.805Z,20.58
2023-03-06T11:48:42.906Z,18.80
2023-03-06T11:51:17.558Z,19.85
2023-03-06T11:53:45.524Z,21.23
2023-03-06T11:56:29.935Z,20.55
2023-03-06T11:59:01.093Z,22.23
2023-03-06T12:01:32.955Z,21.70
2023-03-06T12:04:21.083Z,20.40
2023-03-06T12:06:57.567Z,17.73
2023-03-06T12:09:27.425Z,15.80
2023-03-06T12:12:06.413Z,17.95
2023-03-06T12:14:36.468Z,19.10
2023-03-06T12:17:26.425Z,16.83
2023-03-06T12:20:11.963Z,17.90
2023-03-06T12:22:38.497Z,17.73
2023-03-06T12:25:29.076Z,15.88
2023-03-06T12:28:14.825Z,16.95
2023-03-06T12:30:57.088Z,14.85
2023-03-06T12:33:32.532Z,15.25
2023-03-06T12:36:09.072Z,15.45
2023-03-06T12:38:54.445Z,16.20
2023-03-06T12:41:39.743Z,17.80
2023-03-06T12:44:20.950Z,18.95
2023-03-06T12:46:58.448Z,21.90
2023-03-06T12:49:32.658Z,21.10
2023-03-06T12:52:00.680Z,21.73
2023-03-06T12:54:31.514Z,22.85
2023-03-06T12:56:59.625Z,22.83
2023-03-06T12:59:35.575Z,22.02
2023-03-06T13:02:07.540Z,22.13
2023-03-06T13:04:45.672Z,21.83
2023-03-06T13:07:27.765Z,22.35
2023-03-06T13:10:13.324Z,21.73
2023-03-06T13:12:58.204Z,21.98
2023-03-06T13:15:32.338Z,21.88
2023-03-06T13:17:59.242Z,19.98
2023-03-06T13:20:25.653Z,17.17
2023-03-06T13:22:52.071Z,15.60
2023-03-06T13:25:18.546Z,14.48
2023-03-06T13:27:54.337Z,14.93
2023-03-06T13:30:25.751Z,15.18
2023-03-06T13:32:52.997Z,16.02
2023-03-06T13:35:35.930Z,17.17
2023-03-06T13:38:02.397Z,18.08
2023-03-06T13:40:30.366Z,16.90
2023-03-06T13:42:56.790Z,17.55
2023-03-06T13:45:29.812Z,17.02
2023-03-06T13:48:33.881Z,17.83
2023-03-06T13:50:44.308Z,16.50
2023-03-06T13:53:29.633Z,15.38
2023-03-06T13:56:14.827Z,15.73
2023-03-06T13:58:44.306Z,15.75
2023-03-06T14:01:10.743Z,16.50
2023-03-06T14:03:40.279Z,15.80
2023-03-06T14:06:25.764Z,14.45
2023-03-06T14:08:52.285Z,13.73
2023-03-06T14:11:21.331Z,14.82
2023-03-06T14:13:52.442Z,13.45
2023-03-06T14:16:49.228Z,14.30
2023-03-06T14:19:16.748Z,14.57
2023-03-06T14:21:47.801Z,14.07
2023-03-06T14:24:18.986Z,14.70
2023-03-06T14:26:50.866Z,14.07
2023-03-06T14:29:21.577Z,14.18
2023-03-06T14:31:55.812Z,15.63
2023-03-06T14:34:22.315Z,13.70
2023-03-06T14:36:53.271Z,14.95
2023-03-06T14:39:19.723Z,13.90
2023-03-06T14:41:46.578Z,14.45
2023-03-06T14:44:19.446Z,14.98
2023-03-06T14:46:46.978Z,14.98
2023-03-06T14:49:14.421Z,15.80
2023-03-06T14:51:43.095Z,15.95
2023-03-06T14:54:14.713Z,15.98
2023-03-06T14:56:46.005Z,16.52
2023-03-06T14:59:14.242Z,15.00
2023-03-06T15:01:41.549Z,14.50
2023-03-06T15:04:30.994Z,15.88
2023-03-06T15:06:58.248Z,15.52
2023-03-06T15:09:32.750Z,15.35
2023-03-06T15:11:59.288Z,16.33
2023-03-06T15:14:42.133Z,16.73
2023-03-06T15:17:15.918Z,16.67
2023-03-06T15:19:42.561Z,14.57
2023-03-06T15:22:30.991Z,15.90
2023-03-06T15:25:16.356Z,16.55
2023-03-06T15:27:48.025Z,16.00
2023-03-06T15:30:38.841Z,16.15
2023-03-06T15:33:20.412Z,16.88
2023-03-06T15:36:01.840Z,16.95
2023-03-06T15:38:31.734Z,17.98
2023-03-06T15:40:59.881Z,18.02
2023-03-06T15:43:27.895Z,18.70
2023-03-06T15:45:58.491Z,19.45
2023-03-06T15:48:25.168Z,18.02
2023-03-06T15:50:51.721Z,18.95
2023-03-06T15:53:19.636Z,18.65
2023-03-06T15:55:46.597Z,19.20
2023-03-06T15:58:16.076Z,19.65
2023-03-06T16:00:42.808Z,18.83
2023-03-06T16:03:10.363Z,18.30
2023-03-06T16:05:36.898Z,19.15
2023-03-06T16:08:04.707Z,19.73
2023-03-06T16:10:33.298Z,18.40
2023-03-06T16:13:02.603Z,19.48
2023-03-06T16:15:30.490Z,19.80
2023-03-06T16:17:57.498Z,20.27
2023-03-06T16:20:25.594Z,18.73
2023-03-06T16:22:53.835Z,19.95
2023-03-06T16:25:20.871Z,20.48
2023-03-06T16:27:57.988Z,20.83
2023-03-06T16:30:25.697Z,20.88
2023-03-06T16:32:52.123Z,20.60
2023-03-06T16:35:18.658Z,20.35
2023-03-06T16:37:45.866Z,21.55
2023-03-06T16:40:18.373Z,21.23
2023-03-06T16:42:44.824Z,21.02
2023-03-06T16:45:11.516Z,21.52
2023-03-06T16:47:38.047Z,20.98
2023-03-06T16:50:04.931Z,20.90
2023-03-06T16:52:31.438Z,20.25
2023-03-06T16:54:58.097Z,20.42
2023-03-06T16:57:24.555Z,19.33
2023-03-06T16:59:51.515Z,19.38
2023-03-06T17:02:18.116Z,16.83
2023-03-06T17:04:44.593Z,16.45
2023-03-06T17:07:11.084Z,17.70
2023-03-06T17:09:37.532Z,16.77
2023-03-06T17:12:04.195Z,17.30
2023-03-06T17:14:32.664Z,16.02
2023-03-06T17:16:59.143Z,15.82
2023-03-06T17:19:25.727Z,15.60
2023-03-06T17:21:52.150Z,14.48
2023-03-06T17:24:18.564Z,15.30
2023-03-06T17:26:46.938Z,14.93
2023-03-06T17:29:13.448Z,14.93
2023-03-06T17:31:39.998Z,15.57
2023-03-06T17:34:06.545Z,15.27
2023-03-06T17:36:32.975Z,15.15
2023-03-06T17:39:00.595Z,15.38
2023-03-06T17:41:27.117Z,14.95
2023-03-06T17:43:57.836Z,15.73
2023-03-06T17:46:24.506Z,15.07
2023-03-06T17:48:51.121Z,15.55
2023-03-06T17:51:17.580Z,16.08
2023-03-06T17:53:44.021Z,15.98
2023-03-06T17:56:12.672Z,16.23
2023-03-06T17:58:39.144Z,16.48
2023-03-06T18:01:13.467Z,16.63
2023-03-06T18:03:43.269Z,16.92
2023-03-06T18:06:09.722Z,16.90
2023-03-06T18:08:36.904Z,16.95
2023-03-06T18:11:04.658Z,16.33
2023-03-06T18:13:31.519Z,17.13
2023-03-06T18:15:58.063Z,17.38
2023-03-06T18:18:24.754Z,18.83
2023-03-06T18:20:51.365Z,17.67
2023-03-06T18:23:17.855Z,18.40
2023-03-06T18:25:44.443Z,18.15
2023-03-06T18:28:10.999Z,18.10
2023-03-06T18:30:39.091Z,17.52
2023-03-06T18:33:05.528Z,18.50
2023-03-06T18:35:32.955Z,17.88
2023-03-06T18:37:59.600Z,19.45
2023-03-06T18:40:26.061Z,19.55
2023-03-06T18:42:52.901Z,20.42
2023-03-06T18:45:19.419Z,20.45
2023-03-06T18:47:45.898Z,19.05
2023-03-06T18:50:17.255Z,20.20
2023-03-06T18:52:44.127Z,19.60
2023-03-06T18:55:10.659Z,19.80
2023-03-06T18:57:37.083Z,20.48
2023-03-06T19:00:04.185Z,21.67
2023-03-06T19:02:30.692Z,19.45
2023-03-06T19:04:57.605Z,20.83
2023-03-06T19:11:32.939Z,20.85
2023-03-06T19:18:12.306Z,21.02
2023-03-06T19:23:55.255Z,19.85
2023-03-06T19:26:22.863Z,20.88
2023-03-06T19:32:44.906Z,21.25
2023-03-06T19:35:39.407Z,21.07
2023-03-06T19:38:09.471Z,20.00
2023-03-06T19:40:39.766Z,20.63
2023-03-06T19:43:07.343Z,21.17
2023-03-06T19:45:39.896Z,20.30
2023-03-06T19:48:22.748Z,20.67
2023-03-06T20:08:33.648Z,20.38
2023-03-06T20:11:02.919Z,20.38
2023-03-06T20:13:29.903Z,20.45
2023-03-06T20:17:09.870Z,21.67
2023-03-06T20:18:48.145Z,21.55
2023-03-06T20:21:15.126Z,21.33
2023-03-06T20:23:44.488Z,22.10
2023-03-06T20:26:16.048Z,22.30
2023-03-06T20:28:42.824Z,21.50
2023-03-06T20:31:10.464Z,22.30
2023-03-06T20:33:37.122Z,21.17
2023-03-06T20:36:03.964Z,22.80
2023-03-06T20:38:30.631Z,23.63
2023-03-06T20:40:58.530Z,20.63
2023-03-06T20:43:25.155Z,20.20
2023-03-06T20:46:02.873Z,19.67
2023-03-06T20:48:29.781Z,18.48
2023-03-06T20:51:00.296Z,19.23
2023-03-06T20:53:26.828Z,19.80
2023-03-06T20:55:53.295Z,16.23
2023-03-06T20:58:21.375Z,18.08
2023-03-06T21:00:47.848Z,16.88
2023-03-06T21:03:14.381Z,17.30
2023-03-06T21:05:40.836Z,15.82
2023-03-06T21:08:07.313Z,14.88
2023-03-06T21:10:33.771Z,16.52
2023-03-06T21:13:00.241Z,14.50
2023-03-06T21:15:29.951Z,16.45
2023-03-06T21:17:56.986Z,14.80
2023-03-06T21:20:23.916Z,15.18
2023-03-06T21:22:52.025Z,14.32
2023-03-06T21:25:18.474Z,14.43
2023-03-06T21:27:45.231Z,14.40
2023-03-06T21:30:12.170Z,13.23
2023-03-06T21:32:38.746Z,13.93
2023-03-06T21:35:05.440Z,12.93
2023-03-06T21:37:31.919Z,11.65
2023-03-06T21:39:59.467Z,10.60
2023-03-06T21:42:26.016Z,10.68
2023-03-06T21:44:52.640Z,10.40
2023-03-06T21:47:19.143Z,9.80
2023-03-06T21:49:49.458Z,9.30
2023-03-06T21:52:15.990Z,10.18
2023-03-06T21:54:42.493Z,10.13
2023-03-06T21:57:08.944Z,9.65
2023-03-06T21:59:36.350Z,9.70
2023-03-06T22:02:03.983Z,9.90
2023-03-06T22:04:30.455Z,10.50
2023-03-06T22:06:56.952Z,10.50
2023-03-06T22:09:23.505Z,10.60
2023-03-06T22:11:50.156Z,11.15
2023-03-06T22:14:16.600Z,10.32
2023-03-06T22:16:43.047Z,10.85
2023-03-06T22:19:09.549Z,9.77
2023-03-06T22:21:35.996Z,10.40
2023-03-06T22:24:02.470Z,9.68
2023-03-06T22:26:29.582Z,10.65
2023-03-06T22:28:56.311Z,9.55
2023-03-06T22:31:24.397Z,8.63
2023-03-06T22:33:52.416Z,8.40
2023-03-06T22:36:19.139Z,7.75
2023-03-06T22:38:46.406Z,8.32
2023-03-06T22:41:13.858Z,7.72
2023-03-06T22:43:41.347Z,8.13
2023-03-06T22:46:09.325Z,8.02
2023-03-06T22:48:35.851Z,7.63
2023-03-06T22:51:07.179Z,8.38
2023-03-06T22:53:33.816Z,8.48
2023-03-06T22:56:01.192Z,8.15
2023-03-06T22:58:34.114Z,8.80
2023-03-06T23:01:19.324Z,8.30
2023-03-06T23:03:46.852Z,7.85
2023-03-06T23:06:15.023Z,7.65
2023-03-06T23:08:41.843Z,8.23
2023-03-06T23:11:12.794Z,7.50
2023-03-06T23:13:39.599Z,8.35
2023-03-06T23:16:07.179Z,9.80
2023-03-06T23:18:34.236Z,9.90
2023-03-06T23:21:00.742Z,10.25
2023-03-06T23:23:27.306Z,6.45
2023-03-06T23:25:58.981Z,6.60
2023-03-06T23:28:26.204Z,4.97
2023-03-06T23:30:52.667Z,4.35
2023-03-06T23:33:19.171Z,4.10
2023-03-06T23:35:46.739Z,3.33
2023-03-06T23:38:13.648Z,3.58
2023-03-06T23:40:40.821Z,3.92
2023-03-06T23:43:07.359Z,4.85
2023-03-06T23:45:33.901Z,5.03
2023-03-06T23:48:00.334Z,5.25
2023-03-06T23:50:26.815Z,4.60
2023-03-06T23:52:54.159Z,4.32
2023-03-06T23:55:20.840Z,3.38
2023-03-06T23:57:47.308Z,2.63
